M I D A S
Marine Information and Data Acquisition System
Tripno 1247 of the Zeeleeuw from 2007-04-18 07:13:33 to 2007-04-18 10:57:47
Back to CruiseResearch ActivitiesStationsMapUnderway DataData graphs

EquipmentUnitsComments
TimeDGPSUTC
LatitudeDGPSDM.mWGS84
LongitudeDGPSDM.mWGS84
SpeedMeteo Stationm/sRelative wind speed
DirectionMeteo StationdegRelative wind direction
TemperatureMeteo Stationdeg CelciusAir temperature
PressureMeteo StationPaAtmospheric pressure
HumidityMeteo Station%Relative humidity
Missing or incorrect values are displayed as -999
Metereological data collected by the RV Zeeleeuw from 2007-04-18 07:13:55 to 2007-04-18 12:46:31
                                                                                    Next 1000 lines
Time Latitude Longitude Speed Direction Temperature Pressure Humidity
2007-04-18 07:14:05 51°13.582 2°56.128 -999 -999 -999 -999 -999
2007-04-18 07:14:10 51°13.583 2°56.125 -999 -999 -999 -999 -999
2007-04-18 07:14:16 51°13.585 2°56.12 -999 -999 -999 -999 -999
2007-04-18 07:14:21 51°13.586 2°56.115 -999 -999 -999 -999 -999
2007-04-18 07:14:26 51°13.588 2°56.11 -999 -999 -999 -999 -999
2007-04-18 07:14:31 51°13.59 2°56.104 -999 -999 -999 -999 -999
2007-04-18 07:14:36 51°13.592 2°56.097 -999 -999 -999 -999 -999
2007-04-18 07:14:41 51°13.594 2°56.09 -999 -999 -999 -999 -999
2007-04-18 07:14:46 51°13.597 2°56.083 -999 -999 -999 -999 -999
2007-04-18 07:14:51 51°13.599 2°56.077 -999 -999 -999 -999 -999
2007-04-18 07:14:56 51°13.601 2°56.07 -999 -999 -999 -999 -999
2007-04-18 07:15:00 51°13.603 2°56.064 -999 -999 -999 -999 -999
2007-04-18 07:15:06 51°13.605 2°56.055 -999 -999 -999 -999 -999
2007-04-18 07:15:11 51°13.607 2°56.048 -999 -999 -999 -999 -999
2007-04-18 07:15:16 51°13.609 2°56.041 -999 -999 -999 -999 -999
2007-04-18 07:15:21 51°13.611 2°56.034 -999 -999 -999 -999 -999
2007-04-18 07:15:25 51°13.614 2°56.028 -999 -999 -999 -999 -999
2007-04-18 07:15:31 51°13.616 2°56.019 -999 -999 -999 -999 -999
2007-04-18 07:15:36 51°13.618 2°56.012 -999 -999 -999 -999 -999
2007-04-18 07:15:41 51°13.62 2°56.005 -999 -999 -999 -999 -999
2007-04-18 07:15:45 51°13.622 2°55.999 -999 -999 -999 -999 -999
2007-04-18 07:15:51 51°13.625 2°55.99 -999 -999 -999 -999 -999
2007-04-18 07:15:56 51°13.628 2°55.983 -999 -999 -999 -999 -999
2007-04-18 07:16:01 51°13.63 2°55.975 -999 -999 -999 -999 -999
2007-04-18 07:16:06 51°13.632 2°55.968 -999 -999 -999 -999 -999
2007-04-18 07:16:10 51°13.634 2°55.962 -999 -999 -999 -999 -999
2007-04-18 07:16:16 51°13.637 2°55.953 -999 -999 -999 -999 -999
2007-04-18 07:16:21 51°13.64 2°55.945 -999 -999 -999 -999 -999
2007-04-18 07:16:26 51°13.642 2°55.937 -999 -999 -999 -999 -999
2007-04-18 07:16:31 51°13.644 2°55.929 -999 -999 -999 -999 -999
2007-04-18 07:16:36 51°13.647 2°55.922 -999 -999 -999 -999 -999
2007-04-18 07:16:41 51°13.65 2°55.914 -999 -999 -999 -999 -999
2007-04-18 07:16:46 51°13.652 2°55.907 -999 -999 -999 -999 -999
2007-04-18 07:16:51 51°13.654 2°55.899 -999 -999 -999 -999 -999
2007-04-18 07:16:55 51°13.656 2°55.893 -999 -999 -999 -999 -999
2007-04-18 07:17:01 51°13.659 2°55.885 -999 -999 -999 -999 -999
2007-04-18 07:17:06 51°13.661 2°55.878 -999 -999 -999 -999 -999
2007-04-18 07:17:10 51°13.662 2°55.872 -999 -999 -999 -999 -999
2007-04-18 07:17:15 51°13.664 2°55.865 -999 -999 -999 -999 -999
2007-04-18 07:17:21 51°13.666 2°55.857 -999 -999 -999 -999 -999
2007-04-18 07:17:25 51°13.668 2°55.851 -999 -999 -999 -999 -999
2007-04-18 07:17:30 51°13.669 2°55.845 -999 -999 -999 -999 -999
2007-04-18 07:17:35 51°13.67 2°55.838 -999 -999 -999 -999 -999
2007-04-18 07:17:41 51°13.672 2°55.831 -999 -999 -999 -999 -999
2007-04-18 07:17:46 51°13.673 2°55.825 -999 -999 -999 -999 -999
2007-04-18 07:17:50 51°13.674 2°55.82 -999 -999 -999 -999 -999
2007-04-18 07:17:55 51°13.675 2°55.815 -999 -999 -999 -999 -999
2007-04-18 07:18:01 51°13.676 2°55.809 -999 -999 -999 -999 -999
2007-04-18 07:18:05 51°13.676 2°55.805 -999 -999 -999 -999 -999
2007-04-18 07:18:11 51°13.677 2°55.8 -999 -999 -999 -999 -999
2007-04-18 07:18:16 51°13.678 2°55.797 -999 -999 -999 -999 -999
2007-04-18 07:18:21 51°13.678 2°55.794 -999 -999 -999 -999 -999
2007-04-18 07:18:25 51°13.678 2°55.791 -999 -999 -999 -999 -999
2007-04-18 07:18:30 51°13.679 2°55.789 -999 -999 -999 -999 -999
2007-04-18 07:18:36 51°13.679 2°55.785 -999 -999 -999 -999 -999
2007-04-18 07:18:41 51°13.68 2°55.783 -999 -999 -999 -999 -999
2007-04-18 07:18:45 51°13.68 2°55.781 -999 -999 -999 -999 -999
2007-04-18 07:18:50 51°13.68 2°55.778 -999 -999 -999 -999 -999
2007-04-18 07:18:55 51°13.68 2°55.776 -999 -999 -999 -999 -999
2007-04-18 07:19:01 51°13.68 2°55.774 -999 -999 -999 -999 -999
2007-04-18 07:19:06 51°13.68 2°55.772 -999 -999 -999 -999 -999
2007-04-18 07:19:10 51°13.68 2°55.77 -999 -999 -999 -999 -999
2007-04-18 07:19:15 51°13.68 2°55.769 -999 -999 -999 -999 -999
2007-04-18 07:19:21 51°13.68 2°55.766 -999 -999 -999 -999 -999
2007-04-18 07:19:25 51°13.68 2°55.765 -999 -999 -999 -999 -999
2007-04-18 07:19:30 51°13.681 2°55.763 -999 -999 -999 -999 -999
2007-04-18 07:19:35 51°13.681 2°55.762 -999 -999 -999 -999 -999
2007-04-18 07:19:41 51°13.681 2°55.76 -999 -999 -999 -999 -999
2007-04-18 07:19:46 51°13.681 2°55.759 -999 -999 -999 -999 -999
2007-04-18 07:19:50 51°13.681 2°55.758 -999 -999 -999 -999 -999
2007-04-18 07:19:55 51°13.681 2°55.757 -999 -999 -999 -999 -999
2007-04-18 07:20:01 51°13.681 2°55.757 -999 -999 -999 -999 -999
2007-04-18 07:20:05 51°13.682 2°55.756 -999 -999 -999 -999 -999
2007-04-18 07:20:10 51°13.682 2°55.756 -999 -999 -999 -999 -999
2007-04-18 07:20:15 51°13.683 2°55.756 -999 -999 -999 -999 -999
2007-04-18 07:20:21 51°13.683 2°55.756 -999 -999 -999 -999 -999
2007-04-18 07:20:25 51°13.684 2°55.757 -999 -999 -999 -999 -999
2007-04-18 07:20:30 51°13.684 2°55.757 -999 -999 -999 -999 -999
2007-04-18 07:20:36 51°13.685 2°55.757 -999 -999 -999 -999 -999
2007-04-18 07:20:41 51°13.686 2°55.758 -999 -999 -999 -999 -999
2007-04-18 07:20:45 51°13.687 2°55.758 -999 -999 -999 -999 -999
2007-04-18 07:20:50 51°13.689 2°55.758 -999 -999 -999 -999 -999
2007-04-18 07:20:55 51°13.69 2°55.759 -999 -999 -999 -999 -999
2007-04-18 07:21:01 51°13.692 2°55.759 -999 -999 -999 -999 -999
2007-04-18 07:21:06 51°13.693 2°55.759 -999 -999 -999 -999 -999
2007-04-18 07:21:10 51°13.694 2°55.759 -999 -999 -999 -999 -999
2007-04-18 07:21:15 51°13.696 2°55.759 -999 -999 -999 -999 -999
2007-04-18 07:21:21 51°13.698 2°55.758 -999 -999 -999 -999 -999
2007-04-18 07:21:25 51°13.699 2°55.758 -999 -999 -999 -999 -999
2007-04-18 07:21:30 51°13.701 2°55.758 -999 -999 -999 -999 -999
2007-04-18 07:21:35 51°13.703 2°55.757 -999 -999 -999 -999 -999
2007-04-18 07:21:40 51°13.705 2°55.756 -999 -999 -999 -999 -999
2007-04-18 07:21:46 51°13.708 2°55.755 -999 -999 -999 -999 -999
2007-04-18 07:21:50 51°13.709 2°55.754 -999 -999 -999 -999 -999
2007-04-18 07:21:55 51°13.712 2°55.752 -999 -999 -999 -999 -999
2007-04-18 07:22:01 51°13.715 2°55.751 -999 -999 -999 -999 -999
2007-04-18 07:22:05 51°13.717 2°55.749 -999 -999 -999 -999 -999
2007-04-18 07:22:10 51°13.72 2°55.747 -999 -999 -999 -999 -999
2007-04-18 07:22:15 51°13.723 2°55.744 -999 -999 -999 -999 -999
2007-04-18 07:22:20 51°13.727 2°55.741 -999 -999 -999 -999 -999
2007-04-18 07:22:25 51°13.73 2°55.737 -999 -999 -999 -999 -999
2007-04-18 07:22:31 51°13.735 2°55.731 -999 -999 -999 -999 -999
2007-04-18 07:22:36 51°13.739 2°55.726 -999 -999 -999 -999 -999
2007-04-18 07:22:41 51°13.743 2°55.721 -999 -999 -999 -999 -999
2007-04-18 07:22:45 51°13.747 2°55.717 -999 -999 -999 -999 -999
2007-04-18 07:22:50 51°13.752 2°55.711 -999 -999 -999 -999 -999
2007-04-18 07:22:55 51°13.758 2°55.706 -999 -999 -999 -999 -999
2007-04-18 07:23:01 51°13.764 2°55.698 -999 -999 -999 -999 -999
2007-04-18 07:23:05 51°13.769 2°55.694 -999 -999 -999 -999 -999
2007-04-18 07:23:10 51°13.775 2°55.687 -999 -999 -999 -999 -999
2007-04-18 07:23:16 51°13.783 2°55.68 -999 -999 -999 -999 -999
2007-04-18 07:23:21 51°13.789 2°55.673 -999 -999 -999 -999 -999
2007-04-18 07:23:25 51°13.794 2°55.669 -999 -999 -999 -999 -999
2007-04-18 07:23:30 51°13.801 2°55.663 -999 -999 -999 -999 -999
2007-04-18 07:23:35 51°13.808 2°55.657 -999 -999 -999 -999 -999
2007-04-18 07:23:41 51°13.817 2°55.65 -999 -999 -999 -999 -999
2007-04-18 07:23:45 51°13.822 2°55.645 -999 -999 -999 -999 -999
2007-04-18 07:23:50 51°13.829 2°55.639 -999 -999 -999 -999 -999
2007-04-18 07:23:55 51°13.837 2°55.633 -999 -999 -999 -999 -999
2007-04-18 07:24:01 51°13.846 2°55.625 -999 -999 -999 -999 -999
2007-04-18 07:24:06 51°13.854 2°55.619 -999 -999 -999 -999 -999
2007-04-18 07:24:11 51°13.861 2°55.612 -999 -999 -999 -999 -999
2007-04-18 07:24:15 51°13.868 2°55.607 -999 -999 -999 -999 -999
2007-04-18 07:24:21 51°13.877 2°55.599 -999 -999 -999 -999 -999
2007-04-18 07:24:26 51°13.884 2°55.592 -999 -999 -999 -999 -999
2007-04-18 07:24:31 51°13.892 2°55.585 -999 -999 -999 -999 -999
2007-04-18 07:24:36 51°13.9 2°55.579 -999 -999 -999 -999 -999
2007-04-18 07:24:41 51°13.909 2°55.572 -999 -999 -999 -999 -999
2007-04-18 07:24:46 51°13.917 2°55.566 -999 -999 -999 -999 -999
2007-04-18 07:24:51 51°13.925 2°55.559 -999 -999 -999 -999 -999
2007-04-18 07:24:56 51°13.933 2°55.552 -999 -999 -999 -999 -999
2007-04-18 07:25:01 51°13.942 2°55.546 -999 -999 -999 -999 -999
2007-04-18 07:25:05 51°13.949 2°55.541 -999 -999 -999 -999 -999
2007-04-18 07:25:11 51°13.959 2°55.534 -999 -999 -999 -999 -999
2007-04-18 07:25:16 51°13.968 2°55.528 -999 -999 -999 -999 -999
2007-04-18 07:25:21 51°13.977 2°55.523 -999 -999 -999 -999 -999
2007-04-18 07:25:26 51°13.985 2°55.517 -999 -999 -999 -999 -999
2007-04-18 07:25:30 51°13.992 2°55.512 -999 -999 -999 -999 -999
2007-04-18 07:25:35 51°14.001 2°55.507 -999 -999 -999 -999 -999
2007-04-18 07:25:41 51°14.012 2°55.5 -999 -999 -999 -999 -999
2007-04-18 07:25:46 51°14.021 2°55.495 -999 -999 -999 -999 -999
2007-04-18 07:25:50 51°14.028 2°55.492 -999 -999 -999 -999 -999
2007-04-18 07:25:55 51°14.037 2°55.488 -999 -999 -999 -999 -999
2007-04-18 07:26:01 51°14.048 2°55.482 -999 -999 -999 -999 -999
2007-04-18 07:26:06 51°14.057 2°55.478 -999 -999 -999 -999 -999
2007-04-18 07:26:10 51°14.064 2°55.474 -999 -999 -999 -999 -999
2007-04-18 07:26:15 51°14.073 2°55.469 -999 -999 -999 -999 -999
2007-04-18 07:26:21 51°14.084 2°55.464 -999 -999 -999 -999 -999
2007-04-18 07:26:26 51°14.094 2°55.459 -999 -999 -999 -999 -999
2007-04-18 07:26:30 51°14.101 2°55.456 -999 -999 -999 -999 -999
2007-04-18 07:26:36 51°14.112 2°55.451 -999 -999 -999 -999 -999
2007-04-18 07:26:41 51°14.121 2°55.446 -999 -999 -999 -999 -999
2007-04-18 07:26:45 51°14.128 2°55.442 -999 -999 -999 -999 -999
2007-04-18 07:26:51 51°14.137 2°55.434 -999 -999 -999 -999 -999
2007-04-18 07:26:56 51°14.146 2°55.429 -999 -999 -999 -999 -999
2007-04-18 07:27:01 51°14.154 2°55.423 -999 -999 -999 -999 -999
2007-04-18 07:27:06 51°14.162 2°55.417 -999 -999 -999 -999 -999
2007-04-18 07:27:11 51°14.17 2°55.411 -999 -999 -999 -999 -999
2007-04-18 07:27:15 51°14.176 2°55.405 -999 -999 -999 -999 -999
2007-04-18 07:27:21 51°14.185 2°55.396 -999 -999 -999 -999 -999
2007-04-18 07:27:25 51°14.191 2°55.39 -999 -999 -999 -999 -999
2007-04-18 07:27:30 51°14.199 2°55.383 -999 -999 -999 -999 -999
2007-04-18 07:27:36 51°14.208 2°55.373 -999 -999 -999 -999 -999
2007-04-18 07:27:41 51°14.216 2°55.365 -999 -999 -999 -999 -999
2007-04-18 07:27:45 51°14.222 2°55.358 -999 -999 -999 -999 -999
2007-04-18 07:27:50 51°14.229 2°55.349 -999 -999 -999 -999 -999
2007-04-18 07:27:56 51°14.237 2°55.339 -999 -999 -999 -999 -999
2007-04-18 07:28:01 51°14.243 2°55.33 -999 -999 -999 -999 -999
2007-04-18 07:28:06 51°14.249 2°55.32 -999 -999 -999 -999 -999
2007-04-18 07:28:10 51°14.254 2°55.312 -999 -999 -999 -999 -999
2007-04-18 07:28:15 51°14.26 2°55.301 -999 -999 -999 -999 -999
2007-04-18 07:28:21 51°14.267 2°55.288 -999 -999 -999 -999 -999
2007-04-18 07:28:26 51°14.273 2°55.276 -999 -999 -999 -999 -999
2007-04-18 07:28:30 51°14.277 2°55.267 -999 -999 -999 -999 -999
2007-04-18 07:28:35 51°14.283 2°55.254 -999 -999 -999 -999 -999
2007-04-18 07:28:41 51°14.291 2°55.238 -999 -999 -999 -999 -999
2007-04-18 07:28:46 51°14.297 2°55.223 -999 -999 -999 -999 -999
2007-04-18 07:28:51 51°14.304 2°55.208 -999 -999 -999 -999 -999
2007-04-18 07:28:55 51°14.31 2°55.196 -999 -999 -999 -999 -999
2007-04-18 07:29:01 51°14.319 2°55.176 -999 -999 -999 -999 -999
2007-04-18 07:29:05 51°14.325 2°55.162 -999 -999 -999 -999 -999
2007-04-18 07:29:11 51°14.334 2°55.141 -999 -999 -999 -999 -999
2007-04-18 07:29:15 51°14.34 2°55.126 -999 -999 -999 -999 -999
2007-04-18 07:29:21 51°14.348 2°55.102 -999 -999 -999 -999 -999
2007-04-18 07:29:25 51°14.354 2°55.086 -999 -999 -999 -999 -999
2007-04-18 07:29:31 51°14.363 2°55.062 -999 -999 -999 -999 -999
2007-04-18 07:29:36 51°14.37 2°55.042 -999 -999 -999 -999 -999
2007-04-18 07:29:41 51°14.377 2°55.021 -999 -999 -999 -999 -999
2007-04-18 07:29:45 51°14.383 2°55.004 -999 -999 -999 -999 -999
2007-04-18 07:29:50 51°14.39 2°54.982 -999 -999 -999 -999 -999
2007-04-18 07:29:56 51°14.397 2°54.956 -999 -999 -999 -999 -999
2007-04-18 07:30:01 51°14.403 2°54.934 -999 -999 -999 -999 -999
2007-04-18 07:30:05 51°14.407 2°54.915 -999 -999 -999 -999 -999
2007-04-18 07:30:10 51°14.411 2°54.891 -999 -999 -999 -999 -999
2007-04-18 07:30:16 51°14.414 2°54.862 -999 -999 -999 -999 -999
2007-04-18 07:30:21 51°14.417 2°54.837 -999 -999 -999 -999 -999
2007-04-18 07:30:26 51°14.42 2°54.813 -999 -999 -999 -999 -999
2007-04-18 07:30:30 51°14.421 2°54.793 -999 -999 -999 -999 -999
2007-04-18 07:30:35 51°14.423 2°54.767 -999 -999 -999 -999 -999
2007-04-18 07:30:41 51°14.425 2°54.737 -999 -999 -999 -999 -999
2007-04-18 07:30:46 51°14.425 2°54.711 -999 -999 -999 -999 -999
2007-04-18 07:30:50 51°14.426 2°54.69 -999 -999 -999 -999 -999
2007-04-18 07:30:55 51°14.425 2°54.664 -999 -999 -999 -999 -999
2007-04-18 07:31:01 51°14.425 2°54.633 -999 -999 -999 -999 -999
2007-04-18 07:31:06 51°14.424 2°54.606 -999 -999 -999 -999 -999
2007-04-18 07:31:11 51°14.423 2°54.58 -999 -999 -999 -999 -999
2007-04-18 07:31:15 51°14.422 2°54.559 -999 -999 -999 -999 -999
2007-04-18 07:31:21 51°14.419 2°54.527 -999 -999 -999 -999 -999
2007-04-18 07:31:25 51°14.417 2°54.505 -999 -999 -999 -999 -999
2007-04-18 07:31:30 51°14.414 2°54.478 -999 -999 -999 -999 -999
2007-04-18 07:31:35 51°14.41 2°54.45 -999 -999 -999 -999 -999
2007-04-18 07:31:41 51°14.405 2°54.417 -999 -999 -999 -999 -999
2007-04-18 07:31:45 51°14.4 2°54.395 -999 -999 -999 -999 -999
2007-04-18 07:31:50 51°14.394 2°54.368 -999 -999 -999 -999 -999
2007-04-18 07:31:56 51°14.386 2°54.336 -999 -999 -999 -999 -999
2007-04-18 07:32:01 51°14.378 2°54.31 -999 -999 -999 -999 -999
2007-04-18 07:32:05 51°14.372 2°54.289 -999 -999 -999 -999 -999
2007-04-18 07:32:10 51°14.364 2°54.263 -999 -999 -999 -999 -999
2007-04-18 07:32:16 51°14.353 2°54.233 -999 -999 -999 -999 -999
2007-04-18 07:32:21 51°14.343 2°54.208 -999 -999 -999 -999 -999
2007-04-18 07:32:26 51°14.333 2°54.184 -999 -999 -999 -999 -999
2007-04-18 07:32:30 51°14.325 2°54.164 -999 -999 -999 -999 -999
2007-04-18 07:32:35 51°14.314 2°54.139 -999 -999 -999 -999 -999
2007-04-18 07:32:41 51°14.302 2°54.109 -999 -999 -999 -999 -999
2007-04-18 07:32:46 51°14.292 2°54.084 -999 -999 -999 -999 -999
2007-04-18 07:32:50 51°14.284 2°54.064 -999 -999 -999 -999 -999
2007-04-18 07:32:55 51°14.274 2°54.039 -999 -999 -999 -999 -999
2007-04-18 07:33:01 51°14.263 2°54.008 -999 -999 -999 -999 -999
2007-04-18 07:33:06 51°14.254 2°53.981 -999 -999 -999 -999 -999
2007-04-18 07:33:10 51°14.248 2°53.959 -999 -999 -999 -999 -999
2007-04-18 07:33:15 51°14.241 2°53.931 -999 -999 -999 -999 -999
2007-04-18 07:33:21 51°14.233 2°53.898 -999 -999 -999 -999 -999
2007-04-18 07:33:26 51°14.227 2°53.869 -999 -999 -999 -999 -999
2007-04-18 07:33:31 51°14.223 2°53.84 -999 -999 -999 -999 -999
2007-04-18 07:33:35 51°14.219 2°53.817 -999 -999 -999 -999 -999
2007-04-18 07:33:41 51°14.214 2°53.782 -999 -999 -999 -999 -999
2007-04-18 07:33:46 51°14.211 2°53.752 -999 -999 -999 -999 -999
2007-04-18 07:33:51 51°14.207 2°53.723 -999 -999 -999 -999 -999
2007-04-18 07:33:56 51°14.204 2°53.693 -999 -999 -999 -999 -999
2007-04-18 07:34:01 51°14.201 2°53.663 -999 -999 -999 -999 -999
2007-04-18 07:34:05 51°14.198 2°53.639 -999 -999 -999 -999 -999
2007-04-18 07:34:11 51°14.193 2°53.603 -999 -999 -999 -999 -999
2007-04-18 07:34:16 51°14.187 2°53.573 -999 -999 -999 -999 -999
2007-04-18 07:34:21 51°14.182 2°53.544 -999 -999 -999 -999 -999
2007-04-18 07:34:25 51°14.176 2°53.521 -999 -999 -999 -999 -999
2007-04-18 07:34:30 51°14.168 2°53.493 -999 -999 -999 -999 -999
2007-04-18 07:34:36 51°14.158 2°53.459 -999 -999 -999 -999 -999
2007-04-18 07:34:41 51°14.149 2°53.431 -999 -999 -999 -999 -999
2007-04-18 07:34:45 51°14.142 2°53.409 -999 -999 -999 -999 -999
2007-04-18 07:34:50 51°14.133 2°53.381 -999 -999 -999 -999 -999
2007-04-18 07:34:55 51°14.124 2°53.353 -999 -999 -999 -999 -999
2007-04-18 07:35:01 51°14.113 2°53.32 -999 -999 -999 -999 -999
2007-04-18 07:35:06 51°14.104 2°53.291 -999 -999 -999 -999 -999
2007-04-18 07:35:10 51°14.097 2°53.269 -999 -999 -999 -999 -999
2007-04-18 07:35:15 51°14.089 2°53.24 -999 -999 -999 -999 -999
2007-04-18 07:35:20 51°14.081 2°53.211 -999 -999 -999 -999 -999
2007-04-18 07:35:26 51°14.072 2°53.175 -999 -999 -999 -999 -999
2007-04-18 07:35:30 51°14.066 2°53.152 -999 -999 -999 -999 -999
2007-04-18 07:35:35 51°14.058 2°53.122 -999 -999 -999 -999 -999
2007-04-18 07:35:40 51°14.051 2°53.093 -999 -999 -999 -999 -999
2007-04-18 07:35:46 51°14.041 2°53.058 -999 -999 -999 -999 -999
2007-04-18 07:35:51 51°14.033 2°53.029 -999 -999 -999 -999 -999
2007-04-18 07:35:55 51°14.026 2°53.006 -999 -999 -999 -999 -999
2007-04-18 07:36:01 51°14.016 2°52.972 -999 -999 -999 -999 -999
2007-04-18 07:36:05 51°14.008 2°52.95 -999 -999 -999 -999 -999
2007-04-18 07:36:11 51°13.996 2°52.916 -999 -999 -999 -999 -999
2007-04-18 07:36:15 51°13.988 2°52.895 -999 -999 -999 -999 -999
2007-04-18 07:36:21 51°13.975 2°52.862 -999 -999 -999 -999 -999
2007-04-18 07:36:25 51°13.967 2°52.84 -999 -999 -999 -999 -999
2007-04-18 07:36:30 51°13.957 2°52.813 -999 -999 -999 -999 -999
2007-04-18 07:36:36 51°13.945 2°52.779 -999 -999 -999 -999 -999
2007-04-18 07:36:41 51°13.935 2°52.751 -999 -999 -999 -999 -999
2007-04-18 07:36:45 51°13.928 2°52.728 -999 -999 -999 -999 -999
2007-04-18 07:36:50 51°13.919 2°52.7 -999 -999 -999 -999 -999
2007-04-18 07:36:55 51°13.91 2°52.671 -999 -999 -999 -999 -999
2007-04-18 07:37:01 51°13.9 2°52.636 -999 -999 -999 -999 -999
2007-04-18 07:37:05 51°13.893 2°52.613 -999 -999 -999 -999 -999
2007-04-18 07:37:10 51°13.884 2°52.585 -999 -999 -999 -999 -999
2007-04-18 07:37:15 51°13.875 2°52.556 -999 -999 -999 -999 -999
2007-04-18 07:37:21 51°13.863 2°52.523 -999 -999 -999 -999 -999
2007-04-18 07:37:26 51°13.853 2°52.495 -999 -999 -999 -999 -999
2007-04-18 07:37:30 51°13.844 2°52.473 -999 -999 -999 -999 -999
2007-04-18 07:37:35 51°13.834 2°52.446 -999 -999 -999 -999 -999
2007-04-18 07:37:40 51°13.823 2°52.42 -999 -999 -999 -999 -999
2007-04-18 07:37:46 51°13.81 2°52.387 -999 -999 -999 -999 -999
2007-04-18 07:37:51 51°13.799 2°52.36 -999 -999 -999 -999 -999
2007-04-18 07:37:55 51°13.791 2°52.337 -999 -999 -999 -999 -999
2007-04-18 07:38:01 51°13.779 2°52.305 -999 -999 -999 -999 -999
2007-04-18 07:38:06 51°13.769 2°52.277 -999 -999 -999 -999 -999
2007-04-18 07:38:11 51°13.759 2°52.249 -999 -999 -999 -999 -999
2007-04-18 07:38:15 51°13.751 2°52.226 -999 -999 -999 -999 -999
2007-04-18 07:38:21 51°13.739 2°52.193 -999 -999 -999 -999 -999
2007-04-18 07:38:25 51°13.731 2°52.171 -999 -999 -999 -999 -999
2007-04-18 07:38:31 51°13.719 2°52.138 -999 -999 -999 -999 -999
2007-04-18 07:38:36 51°13.708 2°52.11 -999 -999 -999 -999 -999
2007-04-18 07:38:41 51°13.698 2°52.083 -999 -999 -999 -999 -999
2007-04-18 07:38:45 51°13.689 2°52.061 -999 -999 -999 -999 -999
2007-04-18 07:38:51 51°13.676 2°52.029 -999 -999 -999 -999 -999
2007-04-18 07:38:56 51°13.665 2°52.002 -999 -999 -999 -999 -999
2007-04-18 07:39:01 51°13.654 2°51.975 -999 -999 -999 -999 -999
2007-04-18 07:39:05 51°13.645 2°51.954 -999 -999 -999 -999 -999
2007-04-18 07:39:10 51°13.634 2°51.927 -999 -999 -999 -999 -999
2007-04-18 07:39:16 51°13.621 2°51.895 -999 -999 -999 -999 -999
2007-04-18 07:39:21 51°13.61 2°51.868 -999 -999 -999 -999 -999
2007-04-18 07:39:26 51°13.599 2°51.841 -999 -999 -999 -999 -999
2007-04-18 07:39:30 51°13.591 2°51.819 -999 -999 -999 -999 -999
2007-04-18 07:39:35 51°13.58 2°51.791 -999 -999 -999 -999 -999
2007-04-18 07:39:41 51°13.568 2°51.757 -999 -999 -999 -999 -999
2007-04-18 07:39:46 51°13.557 2°51.73 -999 -999 -999 -999 -999
2007-04-18 07:39:50 51°13.549 2°51.707 -999 -999 -999 -999 -999
2007-04-18 07:39:55 51°13.538 2°51.68 -999 -999 -999 -999 -999
2007-04-18 07:40:00 51°13.527 2°51.653 -999 -999 -999 -999 -999
2007-04-18 07:40:06 51°13.514 2°51.62 -999 -999 -999 -999 -999
2007-04-18 07:40:11 51°13.503 2°51.592 -999 -999 -999 -999 -999
2007-04-18 07:40:15 51°13.495 2°51.571 -999 -999 -999 -999 -999
2007-04-18 07:40:21 51°13.481 2°51.538 -999 -999 -999 -999 -999
2007-04-18 07:40:26 51°13.471 2°51.51 -999 -999 -999 -999 -999
2007-04-18 07:40:31 51°13.46 2°51.483 -999 -999 -999 -999 -999
2007-04-18 07:40:35 51°13.451 2°51.461 -999 -999 -999 -999 -999
2007-04-18 07:40:41 51°13.439 2°51.428 -999 -999 -999 -999 -999
2007-04-18 07:40:45 51°13.43 2°51.406 -999 -999 -999 -999 -999
2007-04-18 07:40:51 51°13.418 2°51.373 -999 -999 -999 -999 -999
2007-04-18 07:40:56 51°13.407 2°51.345 -999 -999 -999 -999 -999
2007-04-18 07:41:01 51°13.397 2°51.317 -999 -999 -999 -999 -999
2007-04-18 07:41:05 51°13.388 2°51.295 -999 -999 -999 -999 -999
2007-04-18 07:41:10 51°13.378 2°51.267 -999 -999 -999 -999 -999
2007-04-18 07:41:16 51°13.365 2°51.234 -999 -999 -999 -999 -999
2007-04-18 07:41:21 51°13.354 2°51.207 -999 -999 -999 -999 -999
2007-04-18 07:41:26 51°13.343 2°51.179 -999 -999 -999 -999 -999
2007-04-18 07:41:30 51°13.335 2°51.157 -999 -999 -999 -999 -999
2007-04-18 07:41:36 51°13.322 2°51.124 -999 -999 -999 -999 -999
2007-04-18 07:41:41 51°13.311 2°51.096 -999 -999 -999 -999 -999
2007-04-18 07:41:46 51°13.301 2°51.069 -999 -999 -999 -999 -999
2007-04-18 07:41:50 51°13.292 2°51.048 -999 -999 -999 -999 -999
2007-04-18 07:41:55 51°13.282 2°51.02 -999 -999 -999 -999 -999
2007-04-18 07:42:01 51°13.269 2°50.987 -999 -999 -999 -999 -999
2007-04-18 07:42:06 51°13.258 2°50.958 -999 -999 -999 -999 -999
2007-04-18 07:42:11 51°13.247 2°50.931 -999 -999 -999 -999 -999
2007-04-18 07:42:15 51°13.238 2°50.909 -999 -999 -999 -999 -999
2007-04-18 07:42:21 51°13.225 2°50.876 -999 -999 -999 -999 -999
2007-04-18 07:42:26 51°13.214 2°50.848 -999 -999 -999 -999 -999
2007-04-18 07:42:31 51°13.203 2°50.821 -999 -999 -999 -999 -999
2007-04-18 07:42:35 51°13.195 2°50.799 -999 -999 -999 -999 -999
2007-04-18 07:42:41 51°13.182 2°50.765 -999 -999 -999 -999 -999
2007-04-18 07:42:45 51°13.173 2°50.743 -999 -999 -999 -999 -999
2007-04-18 07:42:50 51°13.162 2°50.715 -999 -999 -999 -999 -999
2007-04-18 07:42:56 51°13.149 2°50.682 -999 -999 -999 -999 -999
2007-04-18 07:43:01 51°13.139 2°50.655 -999 -999 -999 -999 -999
2007-04-18 07:43:05 51°13.13 2°50.633 -999 -999 -999 -999 -999
2007-04-18 07:43:11 51°13.117 2°50.599 -999 -999 -999 -999 -999
2007-04-18 07:43:16 51°13.106 2°50.571 -999 -999 -999 -999 -999
2007-04-18 07:43:21 51°13.095 2°50.543 -999 -999 -999 -999 -999
2007-04-18 07:43:25 51°13.086 2°50.52 -999 -999 -999 -999 -999
2007-04-18 07:43:30 51°13.076 2°50.49 -999 -999 -999 -999 -999
2007-04-18 07:43:35 51°13.065 2°50.463 -999 -999 -999 -999 -999
2007-04-18 07:43:41 51°13.052 2°50.43 -999 -999 -999 -999 -999
2007-04-18 07:43:46 51°13.041 2°50.402 -999 -999 -999 -999 -999
2007-04-18 07:43:50 51°13.033 2°50.38 -999 -999 -999 -999 -999
2007-04-18 07:43:56 51°13.02 2°50.347 -999 -999 -999 -999 -999
2007-04-18 07:44:01 51°13.008 2°50.319 -999 -999 -999 -999 -999
2007-04-18 07:44:06 51°12.997 2°50.292 -999 -999 -999 -999 -999
2007-04-18 07:44:10 51°12.988 2°50.269 -999 -999 -999 -999 -999
2007-04-18 07:44:15 51°12.977 2°50.241 -999 -999 -999 -999 -999
2007-04-18 07:44:21 51°12.963 2°50.208 -999 -999 -999 -999 -999
2007-04-18 07:44:26 51°12.952 2°50.18 -999 -999 -999 -999 -999
2007-04-18 07:44:31 51°12.941 2°50.152 -999 -999 -999 -999 -999
2007-04-18 07:44:35 51°12.932 2°50.13 -999 -999 -999 -999 -999
2007-04-18 07:44:41 51°12.919 2°50.096 -999 -999 -999 -999 -999
2007-04-18 07:44:46 51°12.908 2°50.068 -999 -999 -999 -999 -999
2007-04-18 07:44:50 51°12.899 2°50.046 -999 -999 -999 -999 -999
2007-04-18 07:44:55 51°12.888 2°50.018 -999 -999 -999 -999 -999
2007-04-18 07:45:01 51°12.875 2°49.984 -999 -999 -999 -999 -999
2007-04-18 07:45:06 51°12.863 2°49.956 -999 -999 -999 -999 -999
2007-04-18 07:45:11 51°12.852 2°49.928 -999 -999 -999 -999 -999
2007-04-18 07:45:16 51°12.841 2°49.901 -999 -999 -999 -999 -999
2007-04-18 07:45:21 51°12.83 2°49.873 -999 -999 -999 -999 -999
2007-04-18 07:45:25 51°12.821 2°49.851 -999 -999 -999 -999 -999
2007-04-18 07:45:31 51°12.808 2°49.817 -999 -999 -999 -999 -999
2007-04-18 07:45:35 51°12.8 2°49.795 -999 -999 -999 -999 -999
2007-04-18 07:45:41 51°12.786 2°49.761 -999 -999 -999 -999 -999
2007-04-18 07:45:46 51°12.776 2°49.733 -999 -999 -999 -999 -999
2007-04-18 07:45:50 51°12.767 2°49.71 -999 -999 -999 -999 -999
2007-04-18 07:45:56 51°12.754 2°49.676 -999 -999 -999 -999 -999
2007-04-18 07:46:01 51°12.743 2°49.648 -999 -999 -999 -999 -999
2007-04-18 07:46:06 51°12.732 2°49.619 -999 -999 -999 -999 -999
2007-04-18 07:46:10 51°12.724 2°49.596 -999 -999 -999 -999 -999
2007-04-18 07:46:16 51°12.713 2°49.561 -999 -999 -999 -999 -999
2007-04-18 07:46:21 51°12.703 2°49.532 -999 -999 -999 -999 -999
2007-04-18 07:46:25 51°12.696 2°49.508 -999 -999 -999 -999 -999
2007-04-18 07:46:31 51°12.685 2°49.473 -999 -999 -999 -999 -999
2007-04-18 07:46:35 51°12.677 2°49.449 -999 -999 -999 -999 -999
2007-04-18 07:46:41 51°12.666 2°49.414 -999 -999 -999 -999 -999
2007-04-18 07:46:46 51°12.657 2°49.385 -999 -999 -999 -999 -999
2007-04-18 07:46:50 51°12.649 2°49.362 -999 -999 -999 -999 -999
2007-04-18 07:46:55 51°12.639 2°49.333 -999 -999 -999 -999 -999
2007-04-18 07:47:01 51°12.627 2°49.299 -999 -999 -999 -999 -999
2007-04-18 07:47:06 51°12.616 2°49.271 -999 -999 -999 -999 -999
2007-04-18 07:47:10 51°12.608 2°49.248 -999 -999 -999 -999 -999
2007-04-18 07:47:16 51°12.595 2°49.215 -999 -999 -999 -999 -999
2007-04-18 07:47:21 51°12.585 2°49.187 -999 -999 -999 -999 -999
2007-04-18 07:47:25 51°12.576 2°49.165 -999 -999 -999 -999 -999
2007-04-18 07:47:31 51°12.564 2°49.131 -999 -999 -999 -999 -999
2007-04-18 07:47:35 51°12.555 2°49.108 -999 -999 -999 -999 -999
2007-04-18 07:47:41 51°12.543 2°49.074 -999 -999 -999 -999 -999
2007-04-18 07:47:45 51°12.535 2°49.051 -999 -999 -999 -999 -999
2007-04-18 07:47:50 51°12.524 2°49.023 -999 -999 -999 -999 -999
2007-04-18 07:47:56 51°12.512 2°48.989 -999 -999 -999 -999 -999
2007-04-18 07:48:01 51°12.501 2°48.961 -999 -999 -999 -999 -999
2007-04-18 07:48:06 51°12.491 2°48.932 -999 -999 -999 -999 -999
2007-04-18 07:48:10 51°12.483 2°48.91 -999 -999 -999 -999 -999
2007-04-18 07:48:16 51°12.47 2°48.876 -999 -999 -999 -999 -999
2007-04-18 07:48:21 51°12.46 2°48.848 -999 -999 -999 -999 -999
2007-04-18 07:48:25 51°12.452 2°48.825 -999 -999 -999 -999 -999
2007-04-18 07:48:30 51°12.442 2°48.797 -999 -999 -999 -999 -999
2007-04-18 07:48:35 51°12.431 2°48.769 -999 -999 -999 -999 -999
2007-04-18 07:48:41 51°12.419 2°48.735 -999 -999 -999 -999 -999
2007-04-18 07:48:46 51°12.409 2°48.707 -999 -999 -999 -999 -999
2007-04-18 07:48:50 51°12.401 2°48.684 -999 -999 -999 -999 -999
2007-04-18 07:48:55 51°12.39 2°48.656 -999 -999 -999 -999 -999
2007-04-18 07:49:01 51°12.378 2°48.622 -999 -999 -999 -999 -999
2007-04-18 07:49:06 51°12.368 2°48.594 -999 -999 -999 -999 -999
2007-04-18 07:49:10 51°12.36 2°48.572 -999 -999 -999 -999 -999
2007-04-18 07:49:15 51°12.35 2°48.543 -999 -999 -999 -999 -999
2007-04-18 07:49:20 51°12.34 2°48.515 -999 -999 -999 -999 -999
2007-04-18 07:49:26 51°12.328 2°48.481 -999 -999 -999 -999 -999
2007-04-18 07:49:31 51°12.318 2°48.453 -999 -999 -999 -999 -999
2007-04-18 07:49:35 51°12.31 2°48.43 -999 -999 -999 -999 -999
2007-04-18 07:49:41 51°12.297 2°48.397 -999 -999 -999 -999 -999
2007-04-18 07:49:45 51°12.289 2°48.374 -999 -999 -999 -999 -999
2007-04-18 07:49:51 51°12.277 2°48.341 -999 -999 -999 -999 -999
2007-04-18 07:49:55 51°12.269 2°48.318 -999 -999 -999 -999 -999
2007-04-18 07:50:01 51°12.257 2°48.284 -999 -999 -999 -999 -999
2007-04-18 07:50:06 51°12.246 2°48.256 -999 -999 -999 -999 -999
2007-04-18 07:50:11 51°12.236 2°48.228 -999 -999 -999 -999 -999
2007-04-18 07:50:16 51°12.226 2°48.2 -999 -999 -999 -999 -999
2007-04-18 07:50:21 51°12.216 2°48.171 -999 -999 -999 -999 -999
2007-04-18 07:50:25 51°12.208 2°48.149 -999 -999 -999 -999 -999
2007-04-18 07:50:30 51°12.199 2°48.12 -999 -999 -999 -999 -999
2007-04-18 07:50:36 51°12.19 2°48.084 -999 -999 -999 -999 -999
2007-04-18 07:50:41 51°12.183 2°48.053 -999 -999 -999 -999 -999
2007-04-18 07:50:45 51°12.178 2°48.028 -999 -999 -999 -999 -999
2007-04-18 07:50:50 51°12.172 2°47.997 -999 -999 -999 -999 -999
2007-04-18 07:50:55 51°12.167 2°47.966 -999 -999 -999 -999 -999
2007-04-18 07:51:01 51°12.16 2°47.928 -999 -999 -999 -999 -999
2007-04-18 07:51:06 51°12.156 2°47.897 -999 -999 -999 -999 -999
2007-04-18 07:51:10 51°12.152 2°47.871 -999 -999 -999 -999 -999
2007-04-18 07:51:15 51°12.147 2°47.84 -999 -999 -999 -999 -999
2007-04-18 07:51:20 51°12.142 2°47.808 -999 -999 -999 -999 -999
2007-04-18 07:51:26 51°12.136 2°47.772 -999 -999 -999 -999 -999
2007-04-18 07:51:31 51°12.132 2°47.743 -999 -999 -999 -999 -999
2007-04-18 07:51:35 51°12.128 2°47.72 -999 -999 -999 -999 -999
2007-04-18 07:51:41 51°12.122 2°47.688 -999 -999 -999 -999 -999
2007-04-18 07:51:46 51°12.117 2°47.663 -999 -999 -999 -999 -999
2007-04-18 07:51:51 51°12.113 2°47.64 -999 -999 -999 -999 -999
2007-04-18 07:51:55 51°12.108 2°47.622 -999 -999 -999 -999 -999
2007-04-18 07:52:01 51°12.102 2°47.598 -999 -999 -999 -999 -999
2007-04-18 07:52:05 51°12.097 2°47.584 -999 -999 -999 -999 -999
2007-04-18 07:52:11 51°12.09 2°47.564 -999 -999 -999 -999 -999
2007-04-18 07:52:16 51°12.084 2°47.548 -999 -999 -999 -999 -999
2007-04-18 07:52:21 51°12.077 2°47.534 -999 -999 -999 -999 -999
2007-04-18 07:52:25 51°12.072 2°47.524 -999 -999 -999 -999 -999
2007-04-18 07:52:30 51°12.066 2°47.513 -999 -999 -999 -999 -999
2007-04-18 07:52:36 51°12.06 2°47.502 -999 -999 -999 -999 -999
2007-04-18 07:52:41 51°12.055 2°47.493 -999 -999 -999 -999 -999
2007-04-18 07:52:45 51°12.051 2°47.488 -999 -999 -999 -999 -999
2007-04-18 07:52:50 51°12.047 2°47.481 -999 -999 -999 -999 -999
2007-04-18 07:52:55 51°12.043 2°47.475 -999 -999 -999 -999 -999
2007-04-18 07:53:01 51°12.039 2°47.469 -999 -999 -999 -999 -999
2007-04-18 07:53:06 51°12.036 2°47.463 -999 -999 -999 -999 -999
2007-04-18 07:53:10 51°12.034 2°47.459 -999 -999 -999 -999 -999
2007-04-18 07:53:15 51°12.03 2°47.455 -999 -999 -999 -999 -999
2007-04-18 07:53:21 51°12.027 2°47.449 -999 -999 -999 -999 -999
2007-04-18 07:53:26 51°12.023 2°47.445 -999 -999 -999 -999 -999
2007-04-18 07:53:30 51°12.021 2°47.441 -999 -999 -999 -999 -999
2007-04-18 07:53:35 51°12.018 2°47.437 -999 -999 -999 -999 -999
2007-04-18 07:53:40 51°12.014 2°47.433 -999 -999 -999 -999 -999
2007-04-18 07:53:46 51°12.011 2°47.428 -999 -999 -999 -999 -999
2007-04-18 07:53:51 51°12.007 2°47.424 -999 -999 -999 -999 -999
2007-04-18 07:53:55 51°12.005 2°47.421 -999 -999 -999 -999 -999
2007-04-18 07:54:01 51°12.001 2°47.417 -999 -999 -999 -999 -999
2007-04-18 07:54:06 51°11.998 2°47.413 -999 -999 -999 -999 -999
2007-04-18 07:54:11 51°11.995 2°47.41 -999 -999 -999 -999 -999
2007-04-18 07:54:15 51°11.992 2°47.407 -999 -999 -999 -999 -999
2007-04-18 07:54:21 51°11.989 2°47.403 -999 -999 -999 -999 -999
2007-04-18 07:54:25 51°11.986 2°47.4 -999 -999 -999 -999 -999
2007-04-18 07:54:31 51°11.983 2°47.396 -999 -999 -999 -999 -999
2007-04-18 07:54:36 51°11.98 2°47.392 -999 -999 -999 -999 -999
2007-04-18 07:54:41 51°11.977 2°47.389 -999 -999 -999 -999 -999
2007-04-18 07:54:45 51°11.975 2°47.386 -999 -999 -999 -999 -999
2007-04-18 07:54:50 51°11.972 2°47.382 -999 -999 -999 -999 -999
2007-04-18 07:54:56 51°11.968 2°47.378 -999 -999 -999 -999 -999
2007-04-18 07:55:01 51°11.964 2°47.375 -999 -999 -999 -999 -999
2007-04-18 07:55:06 51°11.961 2°47.371 -999 -999 -999 -999 -999
2007-04-18 07:55:10 51°11.957 2°47.368 -999 -999 -999 -999 -999
2007-04-18 07:55:16 51°11.952 2°47.364 -999 -999 -999 -999 -999
2007-04-18 07:55:21 51°11.947 2°47.36 -999 -999 -999 -999 -999
2007-04-18 07:55:26 51°11.942 2°47.356 -999 -999 -999 -999 -999
2007-04-18 07:55:30 51°11.937 2°47.352 -999 -999 -999 -999 -999
2007-04-18 07:55:35 51°11.931 2°47.348 -999 -999 -999 -999 -999
2007-04-18 07:55:41 51°11.924 2°47.342 -999 -999 -999 -999 -999
2007-04-18 07:55:46 51°11.918 2°47.337 -999 -999 -999 -999 -999
2007-04-18 07:55:51 51°11.911 2°47.331 -999 -999 -999 -999 -999
2007-04-18 07:55:55 51°11.906 2°47.326 -999 -999 -999 -999 -999
2007-04-18 07:56:01 51°11.898 2°47.319 -999 -999 -999 -999 -999
2007-04-18 07:56:06 51°11.891 2°47.312 -999 -999 -999 -999 -999
2007-04-18 07:56:11 51°11.883 2°47.306 -999 -999 -999 -999 -999
2007-04-18 07:56:15 51°11.878 2°47.3 -999 -999 -999 -999 -999
2007-04-18 07:56:21 51°11.869 2°47.291 -999 -999 -999 -999 -999
2007-04-18 07:56:26 51°11.862 2°47.283 -999 -999 -999 -999 -999
2007-04-18 07:56:31 51°11.855 2°47.275 -999 -999 -999 -999 -999
2007-04-18 07:56:36 51°11.849 2°47.266 -999 -999 -999 -999 -999
2007-04-18 07:56:41 51°11.843 2°47.257 -999 -999 -999 -999 -999
2007-04-18 07:56:45 51°11.839 2°47.249 -999 -999 -999 -999 -999
2007-04-18 07:56:51 51°11.832 2°47.238 -999 -999 -999 -999 -999
2007-04-18 07:56:56 51°11.828 2°47.228 -999 -999 -999 -999 -999
2007-04-18 07:57:01 51°11.823 2°47.217 -999 -999 -999 -999 -999
2007-04-18 07:57:05 51°11.82 2°47.21 -999 -999 -999 -999 -999
2007-04-18 07:57:10 51°11.815 2°47.2 -999 -999 -999 -999 -999
2007-04-18 07:57:16 51°11.81 2°47.188 -999 -999 -999 -999 -999
2007-04-18 07:57:21 51°11.806 2°47.178 -999 -999 -999 -999 -999
2007-04-18 07:57:26 51°11.802 2°47.169 -999 -999 -999 -999 -999
2007-04-18 07:57:30 51°11.799 2°47.162 -999 -999 -999 -999 -999
2007-04-18 07:57:36 51°11.795 2°47.151 -999 -999 -999 -999 -999
2007-04-18 07:57:41 51°11.792 2°47.142 -999 -999 -999 -999 -999
2007-04-18 07:57:46 51°11.788 2°47.133 -999 -999 -999 -999 -999
2007-04-18 07:57:50 51°11.785 2°47.126 -999 -999 -999 -999 -999
2007-04-18 07:57:55 51°11.782 2°47.117 -999 -999 -999 -999 -999
2007-04-18 07:58:01 51°11.778 2°47.107 -999 -999 -999 -999 -999
2007-04-18 07:58:06 51°11.775 2°47.099 -999 -999 -999 -999 -999
2007-04-18 07:58:11 51°11.772 2°47.09 -999 -999 -999 -999 -999
2007-04-18 07:58:15 51°11.77 2°47.084 -999 -999 -999 -999 -999
2007-04-18 07:58:21 51°11.767 2°47.074 -999 -999 -999 -999 -999
2007-04-18 07:58:26 51°11.764 2°47.066 -999 -999 -999 -999 -999
2007-04-18 07:58:31 51°11.761 2°47.058 -999 -999 -999 -999 -999
2007-04-18 07:58:35 51°11.759 2°47.052 -999 -999 -999 -999 -999
2007-04-18 07:58:41 51°11.756 2°47.043 -999 -999 -999 -999 -999
2007-04-18 07:58:46 51°11.753 2°47.035 -999 -999 -999 -999 -999
2007-04-18 07:58:51 51°11.751 2°47.028 -999 -999 -999 -999 -999
2007-04-18 07:58:56 51°11.749 2°47.021 -999 -999 -999 -999 -999
2007-04-18 07:59:01 51°11.746 2°47.014 -999 -999 -999 -999 -999
2007-04-18 07:59:05 51°11.744 2°47.008 -999 -999 -999 -999 -999
2007-04-18 07:59:11 51°11.742 2°47 -999 -999 -999 -999 -999
2007-04-18 07:59:16 51°11.739 2°46.993 -999 -999 -999 -999 -999
2007-04-18 07:59:21 51°11.737 2°46.987 -999 -999 -999 -999 -999
2007-04-18 07:59:26 51°11.735 2°46.98 -999 -999 -999 -999 -999
2007-04-18 07:59:31 51°11.733 2°46.974 -999 -999 -999 -999 -999
2007-04-18 07:59:36 51°11.731 2°46.967 -999 -999 -999 -999 -999
2007-04-18 07:59:41 51°11.729 2°46.961 -999 -999 -999 -999 -999
2007-04-18 07:59:46 51°11.727 2°46.955 -999 -999 -999 -999 -999
2007-04-18 07:59:50 51°11.725 2°46.95 -999 -999 -999 -999 -999
2007-04-18 07:59:55 51°11.723 2°46.944 -999 -999 -999 -999 -999
2007-04-18 08:00:01 51°11.721 2°46.937 -999 -999 -999 -999 -999
2007-04-18 08:00:06 51°11.718 2°46.931 -999 -999 -999 -999 -999
2007-04-18 08:00:11 51°11.716 2°46.926 -999 -999 -999 -999 -999
2007-04-18 08:00:15 51°11.715 2°46.921 -999 -999 -999 -999 -999
2007-04-18 08:00:21 51°11.712 2°46.915 -999 -999 -999 -999 -999
2007-04-18 08:00:26 51°11.71 2°46.909 -999 -999 -999 -999 -999
2007-04-18 08:00:31 51°11.708 2°46.904 -999 -999 -999 -999 -999
2007-04-18 08:00:35 51°11.706 2°46.899 -999 -999 -999 -999 -999
2007-04-18 08:00:41 51°11.704 2°46.893 -999 -999 -999 -999 -999
2007-04-18 08:00:46 51°11.702 2°46.888 -999 -999 -999 -999 -999
2007-04-18 08:00:50 51°11.7 2°46.884 -999 -999 -999 -999 -999
2007-04-18 08:00:56 51°11.698 2°46.877 -999 -999 -999 -999 -999
2007-04-18 08:01:01 51°11.695 2°46.872 -999 -999 -999 -999 -999
2007-04-18 08:01:06 51°11.693 2°46.867 -999 -999 -999 -999 -999
2007-04-18 08:01:11 51°11.691 2°46.862 -999 -999 -999 -999 -999
2007-04-18 08:01:16 51°11.689 2°46.857 -999 -999 -999 -999 -999
2007-04-18 08:01:21 51°11.687 2°46.851 -999 -999 -999 -999 -999
2007-04-18 08:01:25 51°11.685 2°46.847 -999 -999 -999 -999 -999
2007-04-18 08:01:31 51°11.682 2°46.841 -999 -999 -999 -999 -999
2007-04-18 08:01:35 51°11.681 2°46.836 -999 -999 -999 -999 -999
2007-04-18 08:01:41 51°11.678 2°46.83 -999 -999 -999 -999 -999
2007-04-18 08:01:46 51°11.676 2°46.824 -999 -999 -999 -999 -999
2007-04-18 08:01:50 51°11.674 2°46.82 -999 -999 -999 -999 -999
2007-04-18 08:01:56 51°11.671 2°46.813 -999 -999 -999 -999 -999
2007-04-18 08:02:01 51°11.669 2°46.808 -999 -999 -999 -999 -999
2007-04-18 08:02:06 51°11.666 2°46.802 -999 -999 -999 -999 -999
2007-04-18 08:02:10 51°11.665 2°46.798 -999 -999 -999 -999 -999
2007-04-18 08:02:16 51°11.662 2°46.791 -999 -999 -999 -999 -999
2007-04-18 08:02:21 51°11.66 2°46.785 -999 -999 -999 -999 -999
2007-04-18 08:02:26 51°11.657 2°46.779 -999 -999 -999 -999 -999
2007-04-18 08:02:31 51°11.655 2°46.774 -999 -999 -999 -999 -999
2007-04-18 08:02:35 51°11.653 2°46.769 -999 -999 -999 -999 -999
2007-04-18 08:02:41 51°11.65 2°46.762 -999 -999 -999 -999 -999
2007-04-18 08:02:46 51°11.648 2°46.756 -999 -999 -999 -999 -999
2007-04-18 08:02:50 51°11.646 2°46.751 -999 -999 -999 -999 -999
2007-04-18 08:02:55 51°11.644 2°46.745 -999 -999 -999 -999 -999
2007-04-18 08:03:01 51°11.642 2°46.738 -999 -999 -999 -999 -999
2007-04-18 08:03:06 51°11.639 2°46.732 -999 -999 -999 -999 -999
2007-04-18 08:03:11 51°11.637 2°46.726 -999 -999 -999 -999 -999
2007-04-18 08:03:16 51°11.635 2°46.721 -999 -999 -999 -999 -999
2007-04-18 08:03:21 51°11.633 2°46.714 -999 -999 -999 -999 -999
2007-04-18 08:03:25 51°11.631 2°46.709 -999 -999 -999 -999 -999
2007-04-18 08:03:31 51°11.628 2°46.702 -999 -999 -999 -999 -999
2007-04-18 08:03:35 51°11.627 2°46.697 -999 -999 -999 -999 -999
2007-04-18 08:03:41 51°11.624 2°46.69 -999 -999 -999 -999 -999
2007-04-18 08:03:46 51°11.622 2°46.684 -999 -999 -999 -999 -999
2007-04-18 08:03:50 51°11.62 2°46.679 -999 -999 -999 -999 -999
2007-04-18 08:03:56 51°11.617 2°46.672 -999 -999 -999 -999 -999
2007-04-18 08:04:01 51°11.615 2°46.665 -999 -999 -999 -999 -999
2007-04-18 08:04:06 51°11.614 2°46.659 -999 -999 -999 -999 -999
2007-04-18 08:04:10 51°11.612 2°46.654 -999 -999 -999 -999 -999
2007-04-18 08:04:16 51°11.61 2°46.646 -999 -999 -999 -999 -999
2007-04-18 08:04:21 51°11.608 2°46.64 -999 -999 -999 -999 -999
2007-04-18 08:04:25 51°11.606 2°46.635 -999 -999 -999 -999 -999
2007-04-18 08:04:31 51°11.603 2°46.628 -999 -999 -999 -999 -999
2007-04-18 08:04:35 51°11.602 2°46.623 -999 -999 -999 -999 -999
2007-04-18 08:04:41 51°11.599 2°46.616 -999 -999 -999 -999 -999
2007-04-18 08:04:46 51°11.597 2°46.609 -999 -999 -999 -999 -999
2007-04-18 08:04:50 51°11.595 2°46.604 -999 -999 -999 -999 -999
2007-04-18 08:04:55 51°11.593 2°46.598 -999 -999 -999 -999 -999
2007-04-18 08:05:01 51°11.59 2°46.591 -999 -999 -999 -999 -999
2007-04-18 08:05:06 51°11.588 2°46.585 -999 -999 -999 -999 -999
2007-04-18 08:05:10 51°11.586 2°46.58 -999 -999 -999 -999 -999
2007-04-18 08:05:16 51°11.584 2°46.572 -999 -999 -999 -999 -999
2007-04-18 08:05:21 51°11.581 2°46.566 -999 -999 -999 -999 -999
2007-04-18 08:05:25 51°11.58 2°46.561 -999 -999 -999 -999 -999
2007-04-18 08:05:31 51°11.577 2°46.554 -999 -999 -999 -999 -999
2007-04-18 08:05:35 51°11.575 2°46.549 -999 -999 -999 -999 -999
2007-04-18 08:05:41 51°11.573 2°46.541 -999 -999 -999 -999 -999
2007-04-18 08:05:45 51°11.571 2°46.536 -999 -999 -999 -999 -999
2007-04-18 08:05:51 51°11.568 2°46.529 -999 -999 -999 -999 -999
2007-04-18 08:05:55 51°11.566 2°46.524 -999 -999 -999 -999 -999
2007-04-18 08:06:01 51°11.564 2°46.516 -999 -999 -999 -999 -999
2007-04-18 08:06:06 51°11.562 2°46.51 -999 -999 -999 -999 -999
2007-04-18 08:06:10 51°11.56 2°46.505 -999 -999 -999 -999 -999
2007-04-18 08:06:16 51°11.557 2°46.497 -999 -999 -999 -999 -999
2007-04-18 08:06:21 51°11.555 2°46.491 -999 -999 -999 -999 -999
2007-04-18 08:06:25 51°11.553 2°46.486 -999 -999 -999 -999 -999
2007-04-18 08:06:30 51°11.551 2°46.48 -999 -999 -999 -999 -999
2007-04-18 08:06:36 51°11.549 2°46.472 -999 -999 -999 -999 -999
2007-04-18 08:06:41 51°11.547 2°46.466 -999 -999 -999 -999 -999
2007-04-18 08:06:46 51°11.544 2°46.46 -999 -999 -999 -999 -999
2007-04-18 08:06:50 51°11.543 2°46.455 -999 -999 -999 -999 -999
2007-04-18 08:06:55 51°11.541 2°46.448 -999 -999 -999 -999 -999
2007-04-18 08:07:01 51°11.538 2°46.441 -999 -999 -999 -999 -999
2007-04-18 08:07:06 51°11.536 2°46.434 -999 -999 -999 -999 -999
2007-04-18 08:07:10 51°11.535 2°46.429 -999 -999 -999 -999 -999
2007-04-18 08:07:15 51°11.532 2°46.423 -999 -999 -999 -999 -999
2007-04-18 08:07:21 51°11.53 2°46.415 -999 -999 -999 -999 -999
2007-04-18 08:07:26 51°11.528 2°46.409 -999 -999 -999 -999 -999
2007-04-18 08:07:31 51°11.526 2°46.402 -999 -999 -999 -999 -999
2007-04-18 08:07:35 51°11.524 2°46.397 -999 -999 -999 -999 -999
2007-04-18 08:07:41 51°11.522 2°46.39 -999 -999 -999 -999 -999
2007-04-18 08:07:46 51°11.52 2°46.383 -999 -999 -999 -999 -999
2007-04-18 08:07:51 51°11.518 2°46.377 -999 -999 -999 -999 -999
2007-04-18 08:07:55 51°11.516 2°46.372 -999 -999 -999 -999 -999
2007-04-18 08:08:01 51°11.514 2°46.364 -999 -999 -999 -999 -999
2007-04-18 08:08:05 51°11.513 2°46.359 -999 -999 -999 -999 -999
2007-04-18 08:08:11 51°11.51 2°46.351 -999 -999 -999 -999 -999
2007-04-18 08:08:16 51°11.508 2°46.345 -999 -999 -999 -999 -999
2007-04-18 08:08:21 51°11.506 2°46.338 -999 -999 -999 -999 -999
2007-04-18 08:08:25 51°11.505 2°46.333 -999 -999 -999 -999 -999
2007-04-18 08:08:31 51°11.502 2°46.326 -999 -999 -999 -999 -999
2007-04-18 08:08:36 51°11.499 2°46.32 -999 -999 -999 -999 -999
2007-04-18 08:08:41 51°11.497 2°46.313 -999 -999 -999 -999 -999
2007-04-18 08:08:45 51°11.496 2°46.308 -999 -999 -999 -999 -999
2007-04-18 08:08:50 51°11.494 2°46.302 -999 -999 -999 -999 -999
2007-04-18 08:08:56 51°11.492 2°46.294 -999 -999 -999 -999 -999
2007-04-18 08:09:01 51°11.49 2°46.288 -999 -999 -999 -999 -999
2007-04-18 08:09:06 51°11.488 2°46.281 -999 -999 -999 -999 -999
2007-04-18 08:09:10 51°11.486 2°46.276 -999 -999 -999 -999 -999
2007-04-18 08:09:15 51°11.484 2°46.27 -999 -999 -999 -999 -999
2007-04-18 08:09:21 51°11.482 2°46.262 -999 -999 -999 -999 -999
2007-04-18 08:09:26 51°11.48 2°46.255 -999 -999 -999 -999 -999
2007-04-18 08:09:30 51°11.479 2°46.25 -999 -999 -999 -999 -999
2007-04-18 08:09:35 51°11.477 2°46.243 -999 -999 -999 -999 -999
2007-04-18 08:09:41 51°11.475 2°46.236 -999 -999 -999 -999 -999
2007-04-18 08:09:46 51°11.473 2°46.229 -999 -999 -999 -999 -999
2007-04-18 08:09:51 51°11.471 2°46.223 -999 -999 -999 -999 -999
2007-04-18 08:09:55 51°11.469 2°46.218 -999 -999 -999 -999 -999
2007-04-18 08:10:01 51°11.467 2°46.21 -999 -999 -999 -999 -999
2007-04-18 08:10:06 51°11.465 2°46.203 -999 -999 -999 -999 -999
2007-04-18 08:10:11 51°11.463 2°46.197 -999 -999 -999 -999 -999
2007-04-18 08:10:15 51°11.462 2°46.191 -999 -999 -999 -999 -999
2007-04-18 08:10:21 51°11.46 2°46.184 -999 -999 -999 -999 -999
2007-04-18 08:10:25 51°11.458 2°46.178 -999 -999 -999 -999 -999
2007-04-18 08:10:31 51°11.456 2°46.17 -999 -999 -999 -999 -999
2007-04-18 08:10:36 51°11.454 2°46.164 -999 -999 -999 -999 -999
2007-04-18 08:10:41 51°11.453 2°46.157 -999 -999 -999 -999 -999
2007-04-18 08:10:45 51°11.451 2°46.152 -999 -999 -999 -999 -999
2007-04-18 08:10:51 51°11.449 2°46.144 -999 -999 -999 -999 -999
2007-04-18 08:10:56 51°11.447 2°46.137 -999 -999 -999 -999 -999
2007-04-18 08:11:01 51°11.445 2°46.131 -999 -999 -999 -999 -999
2007-04-18 08:11:06 51°11.444 2°46.124 -999 -999 -999 -999 -999
2007-04-18 08:11:10 51°11.442 2°46.119 -999 -999 -999 -999 -999
2007-04-18 08:11:15 51°11.441 2°46.112 -999 -999 -999 -999 -999
2007-04-18 08:11:21 51°11.439 2°46.104 -999 -999 -999 -999 -999
2007-04-18 08:11:26 51°11.437 2°46.097 -999 -999 -999 -999 -999
2007-04-18 08:11:30 51°11.436 2°46.092 -999 -999 -999 -999 -999
2007-04-18 08:11:35 51°11.434 2°46.085 -999 -999 -999 -999 -999
2007-04-18 08:11:41 51°11.432 2°46.077 -999 -999 -999 -999 -999
2007-04-18 08:11:46 51°11.431 2°46.071 -999 -999 -999 -999 -999
2007-04-18 08:11:51 51°11.429 2°46.064 -999 -999 -999 -999 -999
2007-04-18 08:11:55 51°11.428 2°46.059 -999 -999 -999 -999 -999
2007-04-18 08:12:01 51°11.427 2°46.05 -999 -999 -999 -999 -999
2007-04-18 08:12:06 51°11.425 2°46.044 -999 -999 -999 -999 -999
2007-04-18 08:12:11 51°11.424 2°46.037 -999 -999 -999 -999 -999
2007-04-18 08:12:15 51°11.423 2°46.032 -999 -999 -999 -999 -999
2007-04-18 08:12:21 51°11.422 2°46.024 -999 -999 -999 -999 -999
2007-04-18 08:12:25 51°11.421 2°46.019 -999 -999 -999 -999 -999
2007-04-18 08:12:31 51°11.42 2°46.011 -999 -999 -999 -999 -999
2007-04-18 08:12:36 51°11.42 2°46.004 -999 -999 -999 -999 -999
2007-04-18 08:12:41 51°11.419 2°45.998 -999 -999 -999 -999 -999
2007-04-18 08:12:45 51°11.418 2°45.992 -999 -999 -999 -999 -999
2007-04-18 08:12:51 51°11.417 2°45.984 -999 -999 -999 -999 -999
2007-04-18 08:12:56 51°11.417 2°45.978 -999 -999 -999 -999 -999
2007-04-18 08:13:01 51°11.416 2°45.971 -999 -999 -999 -999 -999
2007-04-18 08:13:05 51°11.416 2°45.966 -999 -999 -999 -999 -999
2007-04-18 08:13:10 51°11.415 2°45.96 -999 -999 -999 -999 -999
2007-04-18 08:13:16 51°11.415 2°45.952 -999 -999 -999 -999 -999
2007-04-18 08:13:21 51°11.415 2°45.946 -999 -999 -999 -999 -999
2007-04-18 08:13:26 51°11.414 2°45.939 -999 -999 -999 -999 -999
2007-04-18 08:13:30 51°11.414 2°45.935 -999 -999 -999 -999 -999
2007-04-18 08:13:35 51°11.414 2°45.928 -999 -999 -999 -999 -999
2007-04-18 08:13:41 51°11.414 2°45.921 -999 -999 -999 -999 -999
2007-04-18 08:13:46 51°11.414 2°45.915 -999 -999 -999 -999 -999
2007-04-18 08:13:50 51°11.414 2°45.91 -999 -999 -999 -999 -999
2007-04-18 08:13:55 51°11.414 2°45.904 -999 -999 -999 -999 -999
2007-04-18 08:14:01 51°11.415 2°45.897 -999 -999 -999 -999 -999
2007-04-18 08:14:06 51°11.415 2°45.891 -999 -999 -999 -999 -999
2007-04-18 08:14:11 51°11.416 2°45.885 -999 -999 -999 -999 -999
2007-04-18 08:14:15 51°11.416 2°45.881 -999 -999 -999 -999 -999
2007-04-18 08:14:21 51°11.417 2°45.873 -999 -999 -999 -999 -999
2007-04-18 08:14:26 51°11.418 2°45.867 -999 -999 -999 -999 -999
2007-04-18 08:14:31 51°11.419 2°45.861 -999 -999 -999 -999 -999
2007-04-18 08:14:35 51°11.42 2°45.856 -999 -999 -999 -999 -999
2007-04-18 08:14:41 51°11.422 2°45.849 -999 -999 -999 -999 -999
2007-04-18 08:14:45 51°11.423 2°45.844 -999 -999 -999 -999 -999
2007-04-18 08:14:51 51°11.425 2°45.836 -999 -999 -999 -999 -999
2007-04-18 08:14:56 51°11.427 2°45.83 -999 -999 -999 -999 -999
2007-04-18 08:15:01 51°11.429 2°45.824 -999 -999 -999 -999 -999
2007-04-18 08:15:05 51°11.43 2°45.818 -999 -999 -999 -999 -999
2007-04-18 08:15:11 51°11.433 2°45.81 -999 -999 -999 -999 -999
2007-04-18 08:15:16 51°11.435 2°45.803 -999 -999 -999 -999 -999
2007-04-18 08:15:21 51°11.436 2°45.796 -999 -999 -999 -999 -999
2007-04-18 08:15:26 51°11.438 2°45.789 -999 -999 -999 -999 -999
2007-04-18 08:15:30 51°11.44 2°45.783 -999 -999 -999 -999 -999
2007-04-18 08:15:36 51°11.442 2°45.774 -999 -999 -999 -999 -999
2007-04-18 08:15:41 51°11.443 2°45.767 -999 -999 -999 -999 -999
2007-04-18 08:15:46 51°11.444 2°45.759 -999 -999 -999 -999 -999
2007-04-18 08:15:50 51°11.445 2°45.752 -999 -999 -999 -999 -999
2007-04-18 08:15:55 51°11.447 2°45.744 -999 -999 -999 -999 -999
2007-04-18 08:16:01 51°11.448 2°45.734 -999 -999 -999 -999 -999
2007-04-18 08:16:06 51°11.448 2°45.726 -999 -999 -999 -999 -999
2007-04-18 08:16:11 51°11.449 2°45.718 -999 -999 -999 -999 -999
2007-04-18 08:16:15 51°11.449 2°45.711 -999 -999 -999 -999 -999
2007-04-18 08:16:21 51°11.45 2°45.702 -999 -999 -999 -999 -999
2007-04-18 08:16:26 51°11.45 2°45.693 -999 -999 -999 -999 -999
2007-04-18 08:16:31 51°11.451 2°45.686 -999 -999 -999 -999 -999
2007-04-18 08:16:35 51°11.451 2°45.679 -999 -999 -999 -999 -999
2007-04-18 08:16:41 51°11.451 2°45.669 -999 -999 -999 -999 -999
2007-04-18 08:16:45 51°11.452 2°45.663 -999 -999 -999 -999 -999
2007-04-18 08:16:51 51°11.452 2°45.654 -999 -999 -999 -999 -999
2007-04-18 08:16:56 51°11.452 2°45.645 -999 -999 -999 -999 -999
2007-04-18 08:17:01 51°11.452 2°45.638 -999 -999 -999 -999 -999
2007-04-18 08:17:05 51°11.452 2°45.631 -999 -999 -999 -999 -999
2007-04-18 08:17:11 51°11.453 2°45.622 -999 -999 -999 -999 -999
2007-04-18 08:17:16 51°11.453 2°45.614 -999 -999 -999 -999 -999
2007-04-18 08:17:21 51°11.453 2°45.607 -999 -999 -999 -999 -999
2007-04-18 08:17:25 51°11.453 2°45.601 -999 -999 -999 -999 -999
2007-04-18 08:17:31 51°11.453 2°45.591 -999 -999 -999 -999 -999
2007-04-18 08:17:36 51°11.454 2°45.584 -999 -999 -999 -999 -999
2007-04-18 08:17:41 51°11.454 2°45.576 -999 -999 -999 -999 -999
2007-04-18 08:17:46 51°11.454 2°45.569 -999 -999 -999 -999 -999
2007-04-18 08:17:50 51°11.454 2°45.563 -999 -999 -999 -999 -999
2007-04-18 08:17:56 51°11.454 2°45.554 -999 -999 -999 -999 -999
2007-04-18 08:18:01 51°11.454 2°45.546 -999 -999 -999 -999 -999
2007-04-18 08:18:06 51°11.454 2°45.539 -999 -999 -999 -999 -999
2007-04-18 08:18:10 51°11.454 2°45.533 -999 -999 -999 -999 -999
2007-04-18 08:18:15 51°11.454 2°45.526 -999 -999 -999 -999 -999
2007-04-18 08:18:21 51°11.454 2°45.517 -999 -999 -999 -999 -999
2007-04-18 08:18:26 51°11.455 2°45.51 -999 -999 -999 -999 -999
2007-04-18 08:18:31 51°11.455 2°45.502 -999 -999 -999 -999 -999
2007-04-18 08:18:35 51°11.455 2°45.497 -999 -999 -999 -999 -999
2007-04-18 08:18:41 51°11.456 2°45.488 -999 -999 -999 -999 -999
2007-04-18 08:18:46 51°11.456 2°45.481 -999 -999 -999 -999 -999
2007-04-18 08:18:50 51°11.456 2°45.475 -999 -999 -999 -999 -999
2007-04-18 08:18:55 51°11.457 2°45.468 -999 -999 -999 -999 -999
2007-04-18 08:19:01 51°11.457 2°45.46 -999 -999 -999 -999 -999
2007-04-18 08:19:06 51°11.458 2°45.453 -999 -999 -999 -999 -999
2007-04-18 08:19:11 51°11.458 2°45.446 -999 -999 -999 -999 -999
2007-04-18 08:19:16 51°11.459 2°45.44 -999 -999 -999 -999 -999
2007-04-18 08:19:21 51°11.46 2°45.433 -999 -999 -999 -999 -999
2007-04-18 08:19:25 51°11.46 2°45.428 -999 -999 -999 -999 -999
2007-04-18 08:19:31 51°11.461 2°45.42 -999 -999 -999 -999 -999
2007-04-18 08:19:35 51°11.462 2°45.415 -999 -999 -999 -999 -999
2007-04-18 08:19:41 51°11.463 2°45.407 -999 -999 -999 -999 -999
2007-04-18 08:19:46 51°11.464 2°45.4 -999 -999 -999 -999 -999
2007-04-18 08:19:51 51°11.464 2°45.394 -999 -999 -999 -999 -999
2007-04-18 08:19:56 51°11.465 2°45.387 -999 -999 -999 -999 -999
2007-04-18 08:20:01 51°11.466 2°45.381 -999 -999 -999 -999 -999
2007-04-18 08:20:06 51°11.467 2°45.375 -999 -999 -999 -999 -999
2007-04-18 08:20:10 51°11.468 2°45.37 -999 -999 -999 -999 -999
2007-04-18 08:20:16 51°11.468 2°45.362 -999 -999 -999 -999 -999
2007-04-18 08:20:21 51°11.469 2°45.355 -999 -999 -999 -999 -999
2007-04-18 08:20:26 51°11.47 2°45.349 -999 -999 -999 -999 -999
2007-04-18 08:20:31 51°11.471 2°45.343 -999 -999 -999 -999 -999
2007-04-18 08:20:36 51°11.471 2°45.336 -999 -999 -999 -999 -999
2007-04-18 08:20:41 51°11.472 2°45.33 -999 -999 -999 -999 -999
2007-04-18 08:20:46 51°11.472 2°45.323 -999 -999 -999 -999 -999
2007-04-18 08:20:50 51°11.473 2°45.318 -999 -999 -999 -999 -999
2007-04-18 08:20:55 51°11.474 2°45.311 -999 -999 -999 -999 -999
2007-04-18 08:21:01 51°11.474 2°45.304 -999 -999 -999 -999 -999
2007-04-18 08:21:06 51°11.475 2°45.297 -999 -999 -999 -999 -999
2007-04-18 08:21:11 51°11.475 2°45.291 -999 -999 -999 -999 -999
2007-04-18 08:21:16 51°11.476 2°45.284 -999 -999 -999 -999 -999
2007-04-18 08:21:21 51°11.477 2°45.278 -999 -999 -999 -999 -999
2007-04-18 08:21:26 51°11.477 2°45.271 -999 -999 -999 -999 -999
2007-04-18 08:21:31 51°11.478 2°45.265 -999 -999 -999 -999 -999
2007-04-18 08:21:35 51°11.478 2°45.26 -999 -999 -999 -999 -999
2007-04-18 08:21:41 51°11.479 2°45.253 -999 -999 -999 -999 -999
2007-04-18 08:21:45 51°11.48 2°45.248 -999 -999 -999 -999 -999
2007-04-18 08:21:51 51°11.48 2°45.24 -999 -999 -999 -999 -999
2007-04-18 08:21:56 51°11.481 2°45.234 -999 -999 -999 -999 -999
2007-04-18 08:22:01 51°11.482 2°45.228 -999 -999 -999 -999 -999
2007-04-18 08:22:06 51°11.482 2°45.221 -999 -999 -999 -999 -999
2007-04-18 08:22:11 51°11.483 2°45.215 -999 -999 -999 -999 -999
2007-04-18 08:22:16 51°11.484 2°45.209 -999 -999 -999 -999 -999
2007-04-18 08:22:21 51°11.484 2°45.203 -999 -999 -999 -999 -999
2007-04-18 08:22:25 51°11.485 2°45.198 -999 -999 -999 -999 -999
2007-04-18 08:22:30 51°11.485 2°45.192 -999 -999 -999 -999 -999
2007-04-18 08:22:36 51°11.486 2°45.184 -999 -999 -999 -999 -999
2007-04-18 08:22:41 51°11.487 2°45.178 -999 -999 -999 -999 -999
2007-04-18 08:22:46 51°11.488 2°45.172 -999 -999 -999 -999 -999
2007-04-18 08:22:50 51°11.488 2°45.168 -999 -999 -999 -999 -999
2007-04-18 08:22:55 51°11.489 2°45.162 -999 -999 -999 -999 -999
2007-04-18 08:23:01 51°11.49 2°45.155 -999 -999 -999 -999 -999
2007-04-18 08:23:06 51°11.491 2°45.149 -999 -999 -999 -999 -999
2007-04-18 08:23:10 51°11.491 2°45.144 -999 -999 -999 -999 -999
2007-04-18 08:23:16 51°11.493 2°45.138 -999 -999 -999 -999 -999
2007-04-18 08:23:21 51°11.493 2°45.132 -999 -999 -999 -999 -999
2007-04-18 08:23:26 51°11.495 2°45.127 -999 -999 -999 -999 -999
2007-04-18 08:23:31 51°11.496 2°45.122 -999 -999 -999 -999 -999
2007-04-18 08:23:35 51°11.497 2°45.118 -999 -999 -999 -999 -999
2007-04-18 08:23:41 51°11.498 2°45.113 -999 -999 -999 -999 -999
2007-04-18 08:23:45 51°11.499 2°45.109 -999 -999 -999 -999 -999
2007-04-18 08:23:51 51°11.501 2°45.104 -999 -999 -999 -999 -999
2007-04-18 08:23:55 51°11.502 2°45.101 -999 -999 -999 -999 -999
2007-04-18 08:24:01 51°11.504 2°45.096 -999 -999 -999 -999 -999
2007-04-18 08:24:06 51°11.505 2°45.093 -999 -999 -999 -999 -999
2007-04-18 08:24:11 51°11.506 2°45.089 -999 -999 -999 -999 -999
2007-04-18 08:24:16 51°11.508 2°45.086 -999 -999 -999 -999 -999
2007-04-18 08:24:21 51°11.509 2°45.083 -999 -999 -999 -999 -999
2007-04-18 08:24:25 51°11.51 2°45.081 -999 -999 -999 -999 -999
2007-04-18 08:24:30 51°11.511 2°45.078 -999 -999 -999 -999 -999
2007-04-18 08:24:36 51°11.513 2°45.074 -999 -999 -999 -999 -999
2007-04-18 08:24:41 51°11.514 2°45.071 -999 -999 -999 -999 -999
2007-04-18 08:24:46 51°11.514 2°45.069 -999 -999 -999 -999 -999
2007-04-18 08:24:50 51°11.515 2°45.066 -999 -999 -999 -999 -999
2007-04-18 08:24:56 51°11.516 2°45.063 -999 -999 -999 -999 -999
2007-04-18 08:25:01 51°11.517 2°45.06 -999 -999 -999 -999 -999
2007-04-18 08:25:06 51°11.518 2°45.057 -999 -999 -999 -999 -999
2007-04-18 08:25:10 51°11.518 2°45.055 -999 -999 -999 -999 -999
2007-04-18 08:25:15 51°11.519 2°45.052 -999 -999 -999 -999 -999
2007-04-18 08:25:21 51°11.52 2°45.049 -999 -999 -999 -999 -999
2007-04-18 08:25:26 51°11.52 2°45.046 -999 -999 -999 -999 -999
2007-04-18 08:25:31 51°11.521 2°45.043 -999 -999 -999 -999 -999
2007-04-18 08:25:35 51°11.522 2°45.041 -999 -999 -999 -999 -999
2007-04-18 08:25:41 51°11.522 2°45.038 -999 -999 -999 -999 -999
2007-04-18 08:25:46 51°11.523 2°45.035 -999 -999 -999 -999 -999
2007-04-18 08:25:51 51°11.523 2°45.032 -999 -999 -999 -999 -999
2007-04-18 08:25:55 51°11.523 2°45.029 -999 -999 -999 -999 -999
2007-04-18 08:26:01 51°11.524 2°45.026 -999 -999 -999 -999 -999
2007-04-18 08:26:06 51°11.524 2°45.023 -999 -999 -999 -999 -999
2007-04-18 08:26:11 51°11.524 2°45.02 -999 -999 -999 -999 -999
2007-04-18 08:26:16 51°11.525 2°45.017 -999 -999 -999 -999 -999
2007-04-18 08:26:21 51°11.525 2°45.014 -999 -999 -999 -999 -999
2007-04-18 08:26:25 51°11.525 2°45.012 -999 -999 -999 -999 -999
2007-04-18 08:26:30 51°11.525 2°45.009 -999 -999 -999 -999 -999
2007-04-18 08:26:36 51°11.525 2°45.005 -999 -999 -999 -999 -999
2007-04-18 08:26:41 51°11.525 2°45.002 -999 -999 -999 -999 -999
2007-04-18 08:26:45 51°11.526 2°45 -999 -999 -999 -999 -999
2007-04-18 08:26:51 51°11.526 2°44.997 -999 -999 -999 -999 -999
2007-04-18 08:26:56 51°11.526 2°44.994 -999 -999 -999 -999 -999
2007-04-18 08:27:01 51°11.526 2°44.991 -999 -999 -999 -999 -999
2007-04-18 08:27:06 51°11.526 2°44.988 -999 -999 -999 -999 -999
2007-04-18 08:27:10 51°11.526 2°44.986 -999 -999 -999 -999 -999
2007-04-18 08:27:15 51°11.526 2°44.983 -999 -999 -999 -999 -999
2007-04-18 08:27:21 51°11.527 2°44.979 -999 -999 -999 -999 -999
2007-04-18 08:27:26 51°11.528 2°44.975 -999 -999 -999 -999 -999
2007-04-18 08:27:30 51°11.529 2°44.973 -999 -999 -999 -999 -999
2007-04-18 08:27:35 51°11.531 2°44.969 -999 -999 -999 -999 -999
2007-04-18 08:27:41 51°11.534 2°44.965 -999 -999 -999 -999 -999
2007-04-18 08:27:46 51°11.537 2°44.963 -999 -999 -999 -999 -999
2007-04-18 08:27:51 51°11.54 2°44.961 -999 -999 -999 -999 -999
2007-04-18 08:27:55 51°11.543 2°44.96 -999 -999 -999 -999 -999
2007-04-18 08:28:01 51°11.547 2°44.959 -999 -999 -999 -999 -999
2007-04-18 08:28:06 51°11.551 2°44.961 -999 -999 -999 -999 -999
2007-04-18 08:28:11 51°11.555 2°44.963 -999 -999 -999 -999 -999
2007-04-18 08:28:15 51°11.558 2°44.966 -999 -999 -999 -999 -999
2007-04-18 08:28:21 51°11.561 2°44.972 -999 -999 -999 -999 -999
2007-04-18 08:28:25 51°11.563 2°44.977 -999 -999 -999 -999 -999
2007-04-18 08:28:31 51°11.565 2°44.986 -999 -999 -999 -999 -999
2007-04-18 08:28:36 51°11.565 2°44.994 -999 -999 -999 -999 -999
2007-04-18 08:28:41 51°11.565 2°45.002 -999 -999 -999 -999 -999
2007-04-18 08:28:45 51°11.564 2°45.009 -999 -999 -999 -999 -999
2007-04-18 08:28:51 51°11.561 2°45.02 -999 -999 -999 -999 -999
2007-04-18 08:28:56 51°11.558 2°45.029 -999 -999 -999 -999 -999
2007-04-18 08:29:01 51°11.555 2°45.04 -999 -999 -999 -999 -999
2007-04-18 08:29:06 51°11.551 2°45.051 -999 -999 -999 -999 -999
2007-04-18 08:29:10 51°11.549 2°45.061 -999 -999 -999 -999 -999
2007-04-18 08:29:16 51°11.545 2°45.078 -999 -999 -999 -999 -999
2007-04-18 08:29:21 51°11.542 2°45.093 -999 -999 -999 -999 -999
2007-04-18 08:29:26 51°11.539 2°45.109 -999 -999 -999 -999 -999
2007-04-18 08:29:30 51°11.537 2°45.122 -999 -999 -999 -999 -999
2007-04-18 08:29:35 51°11.535 2°45.141 -999 -999 -999 -999 -999
2007-04-18 08:29:41 51°11.534 2°45.163 -999 -999 -999 -999 -999
2007-04-18 08:29:46 51°11.532 2°45.183 -999 -999 -999 -999 -999
2007-04-18 08:29:51 51°11.531 2°45.203 -999 -999 -999 -999 -999
2007-04-18 08:29:55 51°11.53 2°45.219 -999 -999 -999 -999 -999
2007-04-18 08:30:01 51°11.529 2°45.244 -999 -999 -999 -999 -999
2007-04-18 08:30:06 51°11.529 2°45.265 -999 -999 -999 -999 -999
2007-04-18 08:30:11 51°11.528 2°45.286 -999 -999 -999 -999 -999
2007-04-18 08:30:15 51°11.528 2°45.301 -999 -999 -999 -999 -999
2007-04-18 08:30:21 51°11.528 2°45.323 -999 -999 -999 -999 -999
2007-04-18 08:30:26 51°11.528 2°45.339 -999 -999 -999 -999 -999
2007-04-18 08:30:31 51°11.528 2°45.354 -999 -999 -999 -999 -999
2007-04-18 08:30:36 51°11.529 2°45.368 -999 -999 -999 -999 -999
2007-04-18 08:30:41 51°11.53 2°45.38 -999 -999 -999 -999 -999
2007-04-18 08:30:46 51°11.532 2°45.391 -999 -999 -999 -999 -999
2007-04-18 08:30:51 51°11.534 2°45.401 -999 -999 -999 -999 -999
2007-04-18 08:30:56 51°11.536 2°45.409 -999 -999 -999 -999 -999
2007-04-18 08:31:01 51°11.538 2°45.416 -999 -999 -999 -999 -999
2007-04-18 08:31:05 51°11.54 2°45.42 -999 -999 -999 -999 -999
2007-04-18 08:31:11 51°11.543 2°45.426 -999 -999 -999 -999 -999
2007-04-18 08:31:16 51°11.545 2°45.429 -999 -999 -999 -999 -999
2007-04-18 08:31:21 51°11.547 2°45.432 -999 -999 -999 -999 -999
2007-04-18 08:31:26 51°11.55 2°45.433 -999 -999 -999 -999 -999
2007-04-18 08:31:30 51°11.551 2°45.434 -999 -999 -999 -999 -999
2007-04-18 08:31:36 51°11.553 2°45.434 -999 -999 -999 -999 -999
2007-04-18 08:31:41 51°11.555 2°45.434 -999 -999 -999 -999 -999
2007-04-18 08:31:46 51°11.556 2°45.433 -999 -999 -999 -999 -999
2007-04-18 08:31:50 51°11.557 2°45.432 -999 -999 -999 -999 -999
2007-04-18 08:31:55 51°11.559 2°45.431 -999 -999 -999 -999 -999
2007-04-18 08:32:01 51°11.56 2°45.429 -999 -999 -999 -999 -999
2007-04-18 08:32:06 51°11.561 2°45.427 -999 -999 -999 -999 -999
2007-04-18 08:32:11 51°11.562 2°45.425 -999 -999 -999 -999 -999
2007-04-18 08:32:15 51°11.564 2°45.424 -999 -999 -999 -999 -999
2007-04-18 08:32:21 51°11.565 2°45.421 -999 -999 -999 -999 -999
2007-04-18 08:32:26 51°11.566 2°45.419 -999 -999 -999 -999 -999
2007-04-18 08:32:31 51°11.567 2°45.417 -999 -999 -999 -999 -999
2007-04-18 08:32:35 51°11.568 2°45.415 -999 -999 -999 -999 -999
2007-04-18 08:32:41 51°11.569 2°45.412 -999 -999 -999 -999 -999
2007-04-18 08:32:46 51°11.57 2°45.409 -999 -999 -999 -999 -999
2007-04-18 08:32:51 51°11.571 2°45.407 -999 -999 -999 -999 -999
2007-04-18 08:32:56 51°11.572 2°45.404 -999 -999 -999 -999 -999
2007-04-18 08:33:01 51°11.573 2°45.401 -999 -999 -999 -999 -999
2007-04-18 08:33:05 51°11.574 2°45.399 -999 -999 -999 -999 -999
2007-04-18 08:33:11 51°11.575 2°45.395 -999 -999 -999 -999 -999
2007-04-18 08:33:16 51°11.575 2°45.392 -999 -999 -999 -999 -999
2007-04-18 08:33:21 51°11.576 2°45.389 -999 -999 -999 -999 -999
2007-04-18 08:33:26 51°11.577 2°45.386 -999 -999 -999 -999 -999
2007-04-18 08:33:31 51°11.577 2°45.383 -999 -999 -999 -999 -999
2007-04-18 08:33:36 51°11.578 2°45.38 -999 -999 -999 -999 -999
2007-04-18 08:33:41 51°11.578 2°45.377 -999 -999 -999 -999 -999
2007-04-18 08:33:46 51°11.579 2°45.374 -999 -999 -999 -999 -999
2007-04-18 08:33:50 51°11.58 2°45.371 -999 -999 -999 -999 -999
2007-04-18 08:33:56 51°11.58 2°45.367 -999 -999 -999 -999 -999
2007-04-18 08:34:01 51°11.58 2°45.364 -999 -999 -999 -999 -999
2007-04-18 08:34:06 51°11.581 2°45.36 -999 -999 -999 -999 -999
2007-04-18 08:34:11 51°11.581 2°45.357 -999 -999 -999 -999 -999
2007-04-18 08:34:15 51°11.581 2°45.354 -999 -999 -999 -999 -999
2007-04-18 08:34:21 51°11.582 2°45.35 -999 -999 -999 -999 -999
2007-04-18 08:34:26 51°11.582 2°45.347 -999 -999 -999 -999 -999
2007-04-18 08:34:31 51°11.583 2°45.344 -999 -999 -999 -999 -999
2007-04-18 08:34:35 51°11.583 2°45.341 -999 -999 -999 -999 -999
2007-04-18 08:34:41 51°11.583 2°45.337 -999 -999 -999 -999 -999
2007-04-18 08:34:46 51°11.583 2°45.334 -999 -999 -999 -999 -999
2007-04-18 08:34:51 51°11.583 2°45.33 -999 -999 -999 -999 -999
2007-04-18 08:34:56 51°11.583 2°45.327 -999 -999 -999 -999 -999
2007-04-18 08:35:01 51°11.583 2°45.324 -999 -999 -999 -999 -999
2007-04-18 08:35:06 51°11.583 2°45.32 -999 -999 -999 -999 -999
2007-04-18 08:35:11 51°11.583 2°45.317 -999 -999 -999 -999 -999
2007-04-18 08:35:16 51°11.583 2°45.313 -999 -999 -999 -999 -999
2007-04-18 08:35:21 51°11.583 2°45.31 -999 -999 -999 -999 -999
2007-04-18 08:35:26 51°11.584 2°45.307 -999 -999 -999 -999 -999
2007-04-18 08:35:31 51°11.584 2°45.304 -999 -999 -999 -999 -999
2007-04-18 08:35:36 51°11.584 2°45.3 -999 -999 -999 -999 -999
2007-04-18 08:35:41 51°11.584 2°45.297 -999 -999 -999 -999 -999
2007-04-18 08:35:46 51°11.584 2°45.294 -999 -999 -999 -999 -999
2007-04-18 08:35:51 51°11.584 2°45.291 -999 -999 -999 -999 -999
2007-04-18 08:35:56 51°11.583 2°45.287 -999 -999 -999 -999 -999
2007-04-18 08:36:01 51°11.583 2°45.284 -999 -999 -999 -999 -999
2007-04-18 08:36:06 51°11.584 2°45.281 -999 -999 -999 -999 -999
2007-04-18 08:36:11 51°11.583 2°45.278 -999 -999 -999 -999 -999
2007-04-18 08:36:16 51°11.583 2°45.275 -999 -999 -999 -999 -999
2007-04-18 08:36:21 51°11.583 2°45.271 -999 -999 -999 -999 -999
2007-04-18 08:36:26 51°11.583 2°45.268 -999 -999 -999 -999 -999
2007-04-18 08:36:31 51°11.583 2°45.265 -999 -999 -999 -999 -999
2007-04-18 08:36:35 51°11.582 2°45.262 -999 -999 -999 -999 -999
2007-04-18 08:36:41 51°11.582 2°45.259 -999 -999 -999 -999 -999
2007-04-18 08:36:46 51°11.582 2°45.256 -999 -999 -999 -999 -999
2007-04-18 08:36:51 51°11.582 2°45.253 -999 -999 -999 -999 -999
2007-04-18 08:36:56 51°11.582 2°45.25 -999 -999 -999 -999 -999
2007-04-18 08:37:01 51°11.582 2°45.247 -999 -999 -999 -999 -999
2007-04-18 08:37:06 51°11.581 2°45.243 -999 -999 -999 -999 -999
2007-04-18 08:37:11 51°11.581 2°45.24 -999 -999 -999 -999 -999
2007-04-18 08:37:16 51°11.581 2°45.237 -999 -999 -999 -999 -999